Airfield :
LOGIN :

Register | Disclaimer

   EN    FR    IT 

 










Legend :    VFR   Marginal VFR   IFR   Intensive IFR   Very Intensive IFR
Visi :
Ceiling :
>= 8 km
>= 3000ft
5 to 8 km
1000 to 3000 ft
1500m to 5 km
500 to 1000 ft
800 to 1500m
200 to 500 ft
< 800m
< 200 ft
Symbols :   Thunderstorms  Fog  Heavy snow  Heavy precipitations  Wind > 20 kt
SIGMETs :     Misc.  Thunderstorms  Icing  Turbulence  Mountain Waves  Volcanic Ashes






- Airport Elevation : 24 ft
- IATA code : IBZ


LEIB - Ibiza

CURRENT METAR :
  • 191730Z VRB02KT CAVOK 12/09 Q1030 NOSIG

EXPIRED METARs :
  • 191700Z 09004KT 060V130 9999 FEW025 13/09 Q1030 NOSIG
  • 191630Z 08005KT 050V120 9999 FEW025 13/09 Q1030 NOSIG
  • 191600Z 08006KT 9999 FEW025 SCT036 14/09 Q1030 NOSIG
  • 191530Z 08007KT 050V120 9999 FEW025 SCT036 14/10 Q1030 NOSIG
  • 191500Z 07006KT 040V100 9999 FEW021 BKN032 14/09 Q1031 NOSIG

TAF TAF LEIB
Valid from the 19 at 15:00 until the 20 at 15:00 UTC


191400Z 1915/2015 08006KT 9999 SCT020 TX14/2012Z TN08/2006Z
BECMG 1918/1920 VRB03KT
PROB30
TEMPO 1922/2007 4000 BR



MET'MAP, your aeronautical weather chart ! - Copyright ORBIFLY December 2007 - Disclaimer

ORBIFLY MET'MAP TEAM :

Programming & Development : Alexandra Zaïnal
Concept & original design : Baudouin d'Aumeries
Assistance for programming : Marc-Olivier Méhu
Technical & hardware support : Manuel Goepfert

Contact : metmap@orbifly.com




SOURCES & CREDITS :

   NOAA